Tropical Cyclones
[Index]
Main Index Home Page Stock Weather Photos Extreme Storms Discussion Storm News and Storm Chasing Reports Tropical Cyclones / Hurricanes / Typhoons Weather Data and Links Wild Fires / Bushfires Weather Observation Techniques Weather Picture Catalogue Tornado Pictures and Reports Stock Video Footage and DVDs for sale
Season 1995-1996 Tropical Cyclone ISOBEL Track Map
Season 1995-1996 Summaries: [BoM-AU] [JTWC-AU] [JTWC-SIO] [JTWC-SPAC] [JTWC-SH]
<<- Previous TC | BoM 1995-1996 Season | Next TC ->>

click for intensity scale information  Lat/long Grid: Show Hide

 Date Labels: Show Hide

Bureau of Meteorology Tropical Cyclone Data

Name: ISOBEL
Number: 785 / 199596_09

27 Jan 1996 01:00 UTC to 01 Feb 1996 01:00 UTC

    date/time    lat    long    hPa   cat  kts
1996-01-27 01   12.4   122.8   1000         27          
1996-01-27 07   12.3   122.1   1000         27          
1996-01-27 13   12.2   121.5   1000         27          
1996-01-27 19   12.1   120.9   1000         27          
1996-01-28 01   12.0   120.2   1000         27          
1996-01-28 04   12.1   119.8   1000         27          
1996-01-28 07   12.3   119.5   1000         27          
1996-01-28 10   12.5   119.0   1000         27          
1996-01-28 13   12.7   118.6   1000         27          
1996-01-28 16   13.0   118.2   1000         27          
1996-01-28 19   13.3   117.8   1000         27          
1996-01-28 22   13.5   117.4    998         29          
1996-01-29 01   13.7   117.0    998         29          
1996-01-29 04   13.9   116.7    998         29          
1996-01-29 07   14.0   116.4    995    1    35          
1996-01-29 10   14.2   116.2    995    1    35          
1996-01-29 13   14.1   116.2    995    1    35          
1996-01-29 16   14.1   116.2    995    1    35          
1996-01-29 19   14.1   116.2    995    1    35          
1996-01-29 22   14.1   116.2    995    1    35          
1996-01-30 01   14.2   116.1    995    1    35          
1996-01-30 04   14.4   115.8    995    1    35          
1996-01-30 07   14.8   115.6    995    1    35          
1996-01-30 10   14.9   115.6    995    1    35          
1996-01-30 13   15.2   115.6    995    1    35          
1996-01-30 16   15.4   115.5    995    1    35          
1996-01-30 19   15.6   115.4    995    1    35          
1996-01-30 22   15.9   115.3    995    1    35          
1996-01-31 01   16.2   115.0    998         29          
1996-01-31 04   16.2   115.0    998         29          
1996-01-31 07   16.3   114.9   1000         27          
1996-01-31 10   16.4   114.8   1000         27          
1996-01-31 13   16.5   114.8   1000         27          
1996-01-31 16   16.7   114.7   1002         23          
1996-01-31 19   16.9   114.7   1002         23          
1996-01-31 22   17.1   114.7   1002         23          
1996-02-01 01   17.3   114.6   1002         23          
Winds are 10-min average.

Tropical cyclone tracks developed by Michael Bath using data from the Bureau of Meteorology and Google Maps.


[Australian Severe Weather index] [Copyright Notice] [Email Contacts] [Search This Site] [Privacy Policy]
Document: tropical_cyclone_isobel.htm Updated: 30 May 2013